Flight Track Log - Related Links

Times and Time Zones

All times are in EDT time to prevent confusion due to time zone crossing. See the DAL1117 flight status page for this flight to view local times or setup timezone preferences in your user account.


Time Position Orientation Groundspeed Altitude Reporting Facility
EDT Latitude Longitude Course Direction KTS MPH feet Rate Location/Type
Sun 09:36:43 PM 42.2025 -83.3561 230° Southwest 169 194 1,600  Level FAA TRACON SMA TRACON (SMA)
Sun 09:37:02 PM 42.1917 -83.3736 230° Southwest 175 201 2,300 1,692 Climbing FAA TRACON SMA TRACON (SMA)
Sun 09:37:22 PM 42.1836 -83.3900 236° Southwest 190 219 2,700 1,500 Climbing FAA TRACON SMA TRACON (SMA)
Sun 09:37:42 PM 42.1725 -83.4125 236° Southwest 206 237 3,300 2,100 Climbing FAA TRACON SMA TRACON (SMA)
Sun 09:38:02 PM 42.1619 -83.4331 235° Southwest 215 247 4,100 2,700 Climbing FAA TRACON SMA TRACON (SMA)
Sun 09:38:22 PM 42.1478 -83.4578 232° Southwest 220 253 5,100 2,700 Climbing FAA TRACON SMA TRACON (SMA)
Sun 09:38:42 PM 42.1369 -83.4750 230° Southwest 225 259 5,900 2,488 Climbing FAA TRACON SMA TRACON (SMA)
Sun 09:39:03 PM 42.1247 -83.5089 244° Southwest 242 278 6,800 2,550 Climbing Cleveland Center
Sun 09:39:22 PM 42.1322 -83.5328 293° West 248 285 7,600 2,462 Climbing FAA TRACON SMA TRACON (SMA)
Sun 09:39:42 PM 42.1456 -83.5581 305° West 262 302 8,400 2,550 Climbing FAA TRACON SMA TRACON (SMA)
Sun 09:40:02 PM 42.1625 -83.5897 306° West 269 310 9,300 2,700 Climbing FAA TRACON SMA TRACON (SMA)
Sun 09:40:22 PM 42.1744 -83.6181 300° West 282 325 10,200 2,341 Climbing FAA TRACON SMA TRACON (SMA)
Sun 09:40:43 PM 42.1867 -83.6456 301° West 278 320 10,900 1,674 Climbing FAA TRACON SMA TRACON (SMA)
Sun 09:41:05 PM 42.2031 -83.6828 301° West 296 341 11,400 1,953 Climbing FAA TRACON SMA TRACON (SMA)
Sun 09:41:26 PM 42.2203 -83.7214 301° West 307 353 12,300 2,108 Climbing FAA TRACON SMA TRACON (SMA)
Sun 09:41:42 PM 42.2308 -83.7453 301° West 317 365 12,700 2,000 Climbing FAA TRACON SMA TRACON (SMA)
Sun 09:42:02 PM 42.2453 -83.7778 301° West 322 371 13,500 2,250 Climbing FAA TRACON SMA TRACON (SMA)
Sun 09:42:22 PM 42.2611 -83.8153 300° West 327 376 14,200 2,100 Climbing FAA TRACON SMA TRACON (SMA)
Sun 09:42:42 PM 42.2781 -83.8519 302° West 333 383 14,900 2,195 Climbing FAA TRACON SMA TRACON (SMA)
Sun 09:43:03 PM 42.2972 -83.8950 301° West 342 394 15,700 2,250 Climbing FAA TRACON SMA TRACON (SMA)
Sun 09:43:22 PM 42.3097 -83.9256 299° West 344 396 16,400 2,154 Climbing FAA TRACON SMA TRACON (SMA)
Sun 09:43:42 PM 42.3278 -83.9650 302° West 350 403 17,100 2,100 Climbing FAA TRACON SMA TRACON (SMA)
Sun 09:44:02 PM 42.3472 -84.0092 301° West 354 407 17,800 2,100 Climbing FAA TRACON SMA TRACON (SMA)
Sun 09:44:22 PM 42.3606 -84.0406 300° West 355 409 18,500 1,756 Climbing FAA TRACON SMA TRACON (SMA)
Sun 09:44:43 PM 42.3783 -84.0808 301° West 359 413 19,000 1,650 Climbing FAA TRACON SMA TRACON (SMA)
Sun 09:45:02 PM 42.3942 -84.1172 301° West 362 417 19,600 1,800 Climbing FAA TRACON SMA TRACON (SMA)
Sun 09:45:23 PM 42.4125 -84.1600 300° West 364 419 20,200 1,800 Climbing FAA TRACON SMA TRACON (SMA)
Sun 09:45:42 PM 42.4261 -84.2031 293° West 367 422 20,800 1,692 Climbing FAA TRACON SMA TRACON (SMA)
Sun 09:46:02 PM 42.4289 -84.2456 275° West 371 427 21,300 1,610 Climbing FAA TRACON SMA TRACON (SMA)
Sun 09:46:23 PM 42.4294 -84.2967 271° West 366 421 21,900 1,800 Climbing FAA TRACON SMA TRACON (SMA)
Sun 09:46:42 PM 42.4319 -84.3422 274° West 372 428 22,500 1,800 Climbing FAA TRACON SMA TRACON (SMA)
Sun 09:47:03 PM 42.4333 -84.3967 272° West 375 432 23,100 1,500 Climbing FAA TRACON SMA TRACON (SMA)
Sun 09:47:22 PM 42.4331 -84.4367 269° West 376 433 23,500 1,231 Climbing FAA TRACON SMA TRACON (SMA)
Sun 09:47:42 PM 42.4356 -84.4847 274° West 381 438 23,900 750 Climbing FAA TRACON SMA TRACON (SMA)
Sun 09:48:02 PM 42.4361 -84.5069 272° West 381 438 24,000 150 Climbing FAA TRACON SMA TRACON (SMA)
Sun 09:48:22 PM 42.4361 -84.5069 289° West 381 438 24,000  Level FAA TRACON SMA TRACON (SMA)
Sun 09:48:47 PM 42.4364 -84.6461 270° West 387 445 24,000  Level Cleveland Center
Sun 09:49:47 PM 42.4403 -84.7731 272° West 387 445 24,000 397 Level Cleveland Center
Sun 09:50:48 PM 42.4456 -84.9175 273° West 390 449 24,800 683 Climbing Chicago Center
Sun 09:51:50 PM 42.4492 -85.0689 272° West 399 459 25,400 774 Climbing Chicago Center
Sun 09:52:52 PM 42.4525 -85.2281 272° West 418 481 26,400 1,073 Climbing Chicago Center
Sun 09:53:53 PM 42.4561 -85.4228 272° West 430 495 27,600 1,024 Climbing Chicago Center
Sun 09:54:55 PM 42.4583 -85.5897 271° West 438 504 28,500 976 Climbing Chicago Center
Sun 09:55:56 PM 42.4614 -85.7556 271° West 442 509 29,600 1,220 Climbing Chicago Center
Sun 09:56:58 PM 42.4628 -85.9239 271° West 445 512 31,000 1,171 Climbing Chicago Center
Sun 09:57:59 PM 42.4650 -86.0867 271° West 432 497 32,000 984 Climbing Chicago Center
Sun 09:59:00 PM 42.4478 -86.2461 262° West 427 491 33,000 927 Climbing Chicago Center
Sun 10:00:02 PM 42.4281 -86.4022 260° West 423 487 33,900 488 Climbing Chicago Center
Sun 10:01:03 PM 42.4081 -86.5583 260° West 420 483 34,000 49 Climbing Chicago Center
Sun 10:02:04 PM 42.3903 -86.7161 261° West 418 481 34,000  Level Chicago Center
Sun 10:03:06 PM 42.3714 -86.8672 260° West 413 475 34,000  Level Chicago Center
Sun 10:04:07 PM 42.3469 -87.0478 260° West 411 473 34,000  Level Chicago Center
Sun 10:05:08 PM 42.3256 -87.1928 259° West 402 463 34,000  Level Chicago Center
Sun 10:06:10 PM 42.3056 -87.3436 260° West 409 471 34,000  Level Chicago Center
Sun 10:07:11 PM 42.2856 -87.4922 260° West 407 468 34,000  Level Chicago Center
Sun 10:08:12 PM 42.2650 -87.6406 259° West 406 467 34,000  Level Chicago Center
Sun 10:09:14 PM 42.2436 -87.7925 259° West 412 474 34,000  Level Chicago Center
Sun 10:10:15 PM 42.2178 -87.9717 259° West 412 474 34,000  Level Chicago Center
Sun 10:11:16 PM 42.1922 -88.1211 257° West 412 474 34,000  Level Chicago Center
Sun 10:12:18 PM 42.1644 -88.2714 256° West 416 479 34,000  Level Chicago Center
Sun 10:13:19 PM 42.1381 -88.4219 257° West 418 481 34,000  Level Chicago Center
Sun 10:14:20 PM 42.1119 -88.5697 257° West 414 476 34,000 49 Level Chicago Center
Sun 10:15:21 PM 42.0844 -88.7189 256° West 414 476 34,100  Climbing Chicago Center
Sun 10:16:23 PM 42.0569 -88.8703 256° West 417 480 34,000 -49 Descending Chicago Center
Sun 10:17:24 PM 42.0244 -89.0450 256° West 408 470 34,000  Level Chicago Center
Sun 10:18:25 PM 41.9994 -89.1911 257° West 406 467 34,000  Level Chicago Center
Sun 10:19:26 PM 41.9828 -89.3414 262° West 407 468 34,000  Level Chicago Center
Sun 10:20:27 PM 41.9658 -89.4883 261° West 403 464 34,000  Level Chicago Center
Sun 10:21:29 PM 41.9472 -89.6350 260° West 402 463 34,000  Level Chicago Center
Sun 10:22:30 PM 41.9297 -89.7828 261° West 405 466 34,000  Level Chicago Center
Sun 10:23:31 PM 41.9119 -89.9350 261° West 405 466 34,000 98 Level Chicago Center
Sun 10:24:32 PM 41.8942 -90.0825 261° West 403 464 34,200 443 Climbing Chicago Center
Sun 10:25:33 PM 41.8756 -90.2297 260° West 402 463 34,900 590 Climbing Chicago Center
Sun 10:26:34 PM 41.8572 -90.3789 261° West 406 467 35,400 541 Climbing Chicago Center
Sun 10:27:35 PM 41.8336 -90.5572 260° West 407 468 36,000 295 Climbing Chicago Center
Sun 10:28:36 PM 41.8139 -90.7069 260° West 411 473 36,000  Level Chicago Center
Sun 10:29:37 PM 41.7936 -90.8533 260° West 402 463 36,000  Level Chicago Center
Sun 10:30:38 PM 41.7744 -91.0014 260° West 405 466 36,000  Level Chicago Center
Sun 10:31:39 PM 41.7553 -91.1492 260° West 406 467 36,000  Level Chicago Center
Sun 10:32:40 PM 41.7344 -91.2969 259° West 406 467 36,000  Level Chicago Center
Sun 10:33:41 PM 41.7142 -91.4433 260° West 403 464 36,000  Level Chicago Center
Sun 10:34:42 PM 41.6942 -91.5878 260° West 399 459 36,000  Level Chicago Center
Sun 10:35:43 PM 41.6742 -91.7336 260° West 399 459 36,000  Level Chicago Center
Sun 10:36:44 PM 41.6542 -91.8772 259° West 397 457 36,000  Level Chicago Center
Sun 10:37:45 PM 41.6294 -92.0500 259° West 396 456 36,000  Level Chicago Center
Sun 10:38:46 PM 41.6081 -92.1953 259° West 398 458 36,000  Level Chicago Center
Sun 10:39:47 PM 41.5878 -92.3378 259° West 394 453 36,000  Level Chicago Center
Sun 10:40:48 PM 41.5678 -92.4719 259° West 375 432 36,000  Level Chicago Center
Sun 10:41:49 PM 41.5478 -92.6097 259° West 377 434 36,000  Level Chicago Center
Sun 10:42:50 PM 41.5236 -92.7569 258° West 378 435 36,000  Level Chicago Center
Sun 10:43:51 PM 41.5039 -92.8939 259° West 380 437 36,000  Level Chicago Center
Sun 10:44:52 PM 41.4836 -93.0342 259° West 389 448 36,000  Level Chicago Center
Sun 10:45:53 PM 41.4617 -93.1717 258° West 385 443 36,000  Level Chicago Center
Sun 10:47:04 PM 41.4369 -93.3375 259° West 381 438 36,000  Level Minneapolis Center
Sun 10:48:05 PM 41.4147 -93.4744 258° West 382 440 36,000  Level Minneapolis Center
Sun 10:49:06 PM 41.3953 -93.6064 259° West 373 429 36,000  Level Minneapolis Center
Sun 10:50:07 PM 41.3739 -93.7431 258° West 377 434 36,000  Level Minneapolis Center
Sun 10:51:09 PM 41.3469 -93.9083 258° West 384 442 36,000  Level Minneapolis Center
Sun 10:52:10 PM 41.3247 -94.0431 258° West 379 436 36,000  Level Minneapolis Center
Sun 10:53:11 PM 41.3033 -94.1772 258° West 376 433 36,000  Level Minneapolis Center
Sun 10:54:12 PM 41.2825 -94.3031 258° West 375 432 36,000 -49 Level Minneapolis Center
Sun 10:55:13 PM 41.2606 -94.4372 258° West 372 428 35,900  Descending Minneapolis Center
Sun 10:56:15 PM 41.2381 -94.5739 258° West 376 433 36,000 49 Climbing Minneapolis Center
Sun 10:57:16 PM 41.2106 -94.7394 258° West 380 437 36,000  Level Minneapolis Center
Sun 10:58:17 PM 41.1869 -94.8781 257° West 383 441 36,000  Level Minneapolis Center
Sun 10:59:18 PM 41.1639 -95.0156 257° West 382 440 36,000  Level Minneapolis Center
Sun 11:00:20 PM 41.1400 -95.1497 257° West 378 435 36,000  Level Minneapolis Center
Sun 11:01:21 PM 41.1161 -95.2836 257° West 375 432 36,000  Level Minneapolis Center
Sun 11:02:23 PM 41.0928 -95.4206 257° West 377 434 36,000  Level Minneapolis Center
Sun 11:03:24 PM 41.0694 -95.5528 257° West 371 427 36,000  Level Minneapolis Center
Sun 11:04:25 PM 41.0456 -95.6839 256° West 366 421 36,000  Level Minneapolis Center
Sun 11:05:26 PM 41.0228 -95.8147 257° West 363 418 36,000  Level Minneapolis Center
Sun 11:06:28 PM 40.9986 -95.9475 256° West 366 421 36,000  Level Minneapolis Center
Sun 11:07:29 PM 40.9744 -96.0786 256° West 366 421 36,000  Level Minneapolis Center
Sun 11:08:30 PM 40.9506 -96.2097 256° West 364 419 36,000  Level Minneapolis Center
Sun 11:09:31 PM 40.9261 -96.3408 256° West 365 420 36,000  Level Minneapolis Center
Sun 11:10:33 PM 40.8969 -96.5000 256° West 368 423 36,000  Level Minneapolis Center
Sun 11:11:34 PM 40.8719 -96.6325 256° West 371 427 36,000  Level Minneapolis Center
Sun 11:12:35 PM 40.8483 -96.7639 257° West 368 423 36,000  Level Minneapolis Center
Sun 11:13:36 PM 40.8228 -96.8961 256° West 370 426 36,000  Level Minneapolis Center
Sun 11:14:37 PM 40.7972 -97.0281 256° West 371 427 36,000  Level Minneapolis Center
Sun 11:15:38 PM 40.7733 -97.1589 256° West 368 423 36,000  Level Minneapolis Center
Sun 11:16:40 PM 40.7469 -97.2875 255° West 365 420 36,000  Level Minneapolis Center
Sun 11:17:41 PM 40.7214 -97.4219 256° West 362 417 36,000  Level Minneapolis Center
Sun 11:18:42 PM 40.6967 -97.5503 256° West 361 415 36,000  Level Minneapolis Center
Sun 11:19:43 PM 40.6714 -97.6794 256° West 363 418 36,000  Level Minneapolis Center
Sun 11:20:44 PM 40.6456 -97.8100 255° West 366 421 36,000  Level Minneapolis Center
Sun 11:21:45 PM 40.6194 -97.9397 255° West 366 421 36,000  Level Minneapolis Center
Sun 11:22:46 PM 40.5931 -98.0703 255° West 367 422 36,000  Level Minneapolis Center
Sun 11:23:47 PM 40.5675 -98.2017 256° West 369 425 36,000  Level Minneapolis Center
Sun 11:24:48 PM 40.5414 -98.3339 255° West 371 427 36,000  Level Minneapolis Center
Sun 11:25:50 PM 40.5136 -98.4636 254° West 369 425 36,000  Level Minneapolis Center
Sun 11:26:51 PM 40.4881 -98.5922 255° West 365 420 36,000  Level Minneapolis Center
Sun 11:27:52 PM 40.4575 -98.7394 255° West 352 405 36,000  Level Minneapolis Center
Sun 11:28:53 PM 40.4319 -98.8594 254° West 343 395 36,000  Level Minneapolis Center
Sun 11:29:54 PM 40.4069 -98.9800 255° West 342 394 36,000 49 Level Minneapolis Center
Sun 11:30:55 PM 40.3817 -99.1006 255° West 342 394 36,100  Climbing Minneapolis Center
Sun 11:31:37 PM 40.3661 -99.1733 254° West 343 395 36,000 -58 Descending Denver Center
Sun 11:32:38 PM 40.3417 -99.2911 255° West 335 386 36,000  Level Denver Center
Sun 11:33:39 PM 40.3164 -99.4083 254° West 334 384 36,000  Level Denver Center
Sun 11:34:41 PM 40.2914 -99.5228 254° West 328 377 36,000  Level Denver Center
Sun 11:35:42 PM 40.2678 -99.6375 255° West 326 375 36,000  Level Denver Center
Sun 11:36:43 PM 40.2372 -99.7758 254° West 329 379 36,000  Level Denver Center
Sun 11:37:44 PM 40.2117 -99.8906 254° West 328 377 36,000  Level Denver Center
Sun 11:38:45 PM 40.1867 -100.0056 254° West 340 391 36,000  Level Denver Center
Sun 11:39:46 PM 40.1617 -100.1178 254° West 338 389 36,000  Level Denver Center
Sun 11:40:47 PM 40.1331 -100.2467 254° West 331 381 36,000  Level Denver Center
Sun 11:41:48 PM 40.1089 -100.3589 254° West 334 384 36,000  Level Denver Center
Sun 11:42:49 PM 40.0839 -100.4692 254° West 331 381 36,000  Level Denver Center
Sun 11:43:51 PM 40.0544 -100.5992 254° West 334 384 36,000  Level Denver Center
Sun 11:44:52 PM 40.0286 -100.7108 253° West 334 384 36,000  Level Denver Center
Sun 11:45:53 PM 39.9992 -100.8403 254° West 333 383 36,000  Level Denver Center
Sun 11:46:54 PM 39.9739 -100.9500 253° West 331 381 36,000  Level Denver Center
Sun 11:47:55 PM 39.9486 -101.0594 253° West 330 380 36,000  Level Denver Center
Sun 11:48:56 PM 39.9186 -101.1911 253° West 339 390 36,000  Level Denver Center
Sun 11:49:57 PM 39.8908 -101.3072 253° West 348 400 36,000  Level Denver Center
Sun 11:50:58 PM 39.8647 -101.4225 254° West 347 399 36,000  Level Denver Center
Sun 11:51:59 PM 39.8331 -101.5564 253° West 344 396 36,000  Level Denver Center
Sun 11:53:00 PM 39.8058 -101.6706 253° West 345 397 36,000  Level Denver Center
Sun 11:54:01 PM 39.7786 -101.7850 253° West 346 398 36,000  Level Denver Center
Sun 11:55:02 PM 39.7469 -101.9183 253° West 345 397 36,000  Level Denver Center
Sun 11:56:03 PM 39.7189 -102.0339 253° West 348 400 36,000  Level Denver Center
Sun 11:57:04 PM 39.6903 -102.1503 252° West 353 406 36,000  Level Denver Center
Sun 11:58:05 PM 39.6583 -102.2844 253° West 349 402 36,000  Level Denver Center
Sun 11:59:06 PM 39.6300 -102.3997 252° West 350 403 36,000  Level Denver Center
Mon 12:00:07 AM 39.5972 -102.5342 252° West 352 405 36,000  Level Denver Center
Mon 12:01:08 AM 39.5672 -102.6567 252° West 354 407 36,000  Level Denver Center
Mon 12:02:09 AM 39.5369 -102.7789 252° West 353 406 36,000  Level Denver Center
Mon 12:03:10 AM 39.5069 -102.9017 252° West 354 407 36,000  Level Denver Center
Mon 12:04:11 AM 39.4758 -103.0253 252° West 357 411 36,000  Level Denver Center
Mon 12:05:12 AM 39.4447 -103.1481 252° West 355 409 36,000  Level Denver Center
Mon 12:06:13 AM 39.4133 -103.2719 252° West 360 414 36,000  Level Denver Center
Mon 12:07:14 AM 39.3825 -103.3947 252° West 357 411 36,000  Level Denver Center
Mon 12:08:15 AM 39.3508 -103.5167 251° West 356 410 36,000  Level Denver Center
Mon 12:09:16 AM 39.3192 -103.6392 252° West 356 410 36,000  Level Denver Center
Mon 12:10:17 AM 39.2881 -103.7631 252° West 359 413 36,000  Level Denver Center
Mon 12:11:18 AM 39.2553 -103.8864 251° West 359 413 36,000  Level Denver Center
Mon 12:12:19 AM 39.2231 -104.0103 251° West 361 415 36,000  Level Denver Center
Mon 12:13:20 AM 39.1897 -104.1358 251° West 364 419 36,000  Level Denver Center
Mon 12:14:34 AM 39.1517 -104.2833 252° West 367 422 36,000  Level Denver Center
Mon 12:15:35 AM 39.1186 -104.4075 251° West 361 415 36,000  Level Denver Center
Mon 12:16:36 AM 39.0847 -104.5367 251° West 375 432 36,000  Level Denver Center
Mon 12:17:37 AM 39.0500 -104.6625 250° West 370 426 36,000  Level Denver Center
Mon 12:18:38 AM 39.0167 -104.7886 251° West 368 423 36,000  Level Denver Center
Mon 12:19:39 AM 38.9836 -104.9128 251° West 364 419 36,000  Level Denver Center
Mon 12:20:40 AM 38.9500 -105.0372 251° West 365 420 36,000  Level Denver Center
Mon 12:21:41 AM 38.9147 -105.1614 250° West 366 421 36,000  Level Denver Center
Mon 12:22:42 AM 38.8819 -105.2867 251° West 367 422 36,000  Level Denver Center
Mon 12:23:43 AM 38.8467 -105.4128 250° West 371 427 36,000  Level Denver Center
Mon 12:24:44 AM 38.8114 -105.5378 250° West 370 426 36,000  Level Denver Center
Mon 12:25:45 AM 38.7778 -105.6633 251° West 370 426 36,000  Level Denver Center
Mon 12:26:46 AM 38.7419 -105.7897 250° West 373 429 36,000  Level Denver Center
Mon 12:27:47 AM 38.7056 -105.9181 250° West 379 436 36,000  Level Denver Center
Mon 12:28:48 AM 38.6689 -106.0453 250° West 378 435 36,000  Level Denver Center
Mon 12:29:49 AM 38.6303 -106.1864 251° West 378 435 36,000  Level Denver Center
Mon 12:30:50 AM 38.5928 -106.3125 249° West 378 435 36,000  Level Denver Center
Mon 12:31:51 AM 38.5572 -106.4383 250° West 375 432 36,000  Level Denver Center
Mon 12:32:52 AM 38.5222 -106.5633 250° West 374 430 36,000  Level Denver Center
Mon 12:33:53 AM 38.4928 -106.6631 249° West 372 428 36,000  Level Denver Center
Mon 12:34:54 AM 38.4497 -106.8119 250° West 372 428 36,000  Level Denver Center
Mon 12:36:07 AM 38.4122 -106.9367 249° West 375 432 36,000  Level Denver Center
Mon 12:37:09 AM 38.3689 -107.0878 250° West 376 433 36,000  Level Denver Center
Mon 12:38:10 AM 38.3322 -107.2103 249° West 370 426 36,000  Level Denver Center
Mon 12:39:11 AM 38.2922 -107.3472 250° West 370 426 36,000  Level Denver Center
Mon 12:40:11 AM 38.2572 -107.4650 249° West 370 426 36,000  Level Denver Center
Mon 12:41:12 AM 38.2233 -107.5792 249° West 363 418 36,000  Level Denver Center
Mon 12:42:13 AM 38.1825 -107.7136 249° West 365 420 36,000  Level Denver Center
Mon 12:43:27 AM 38.1422 -107.8481 249° West 364 419 36,000  Level Denver Center
Mon 12:44:28 AM 38.1006 -107.9831 249° West 366 421 36,000  Level Denver Center
Mon 12:45:28 AM 38.0672 -108.0964 250° West 366 421 36,000  Level Denver Center
Mon 12:46:29 AM 38.0253 -108.2303 248° West 367 422 36,000  Level Denver Center
Mon 12:47:30 AM 37.9900 -108.3475 249° West 369 425 36,000  Level Denver Center
Mon 12:48:31 AM 37.9536 -108.4642 248° West 372 428 36,000  Level Denver Center
Mon 12:49:32 AM 37.9119 -108.6003 249° West 371 427 36,000  Level Denver Center
Mon 12:50:33 AM 37.8761 -108.7150 248° West 369 425 36,000  Level Denver Center
Mon 12:51:34 AM 37.8397 -108.8311 248° West 371 427 36,000  Level Denver Center
Mon 12:52:35 AM 37.7992 -108.9661 249° West 369 425 36,000  Level Denver Center
Mon 12:53:36 AM 37.7697 -109.0867 253° West 373 429 36,000  Level Denver Center
Mon 12:54:36 AM 37.7356 -109.2242 253° West 370 426 36,000  Level Denver Center
Mon 12:55:37 AM 37.7064 -109.3433 253° West 372 428 36,000  Level Denver Center
Mon 12:56:38 AM 37.6764 -109.4619 252° West 372 428 36,000  Level Denver Center
Mon 12:57:39 AM 37.6411 -109.6014 252° West 373 429 36,000  Level Denver Center
Mon 12:58:40 AM 37.6125 -109.7192 253° West 369 425 36,000  Level Denver Center
Mon 12:59:41 AM 37.5817 -109.8386 252° West 374 430 36,000  Level Denver Center
Mon 01:00:41 AM 37.5458 -109.9806 252° West 380 437 36,000  Level Denver Center
Mon 01:01:42 AM 37.5147 -110.1003 252° West 377 434 36,000  Level Denver Center
Mon 01:02:43 AM 37.4794 -110.2339 252° West 378 435 36,000  Level Denver Center
Mon 01:03:44 AM 37.4467 -110.3589 252° West 378 435 36,000  Level Denver Center
Mon 01:04:44 AM 37.4144 -110.4858 252° West 381 438 36,000  Level Denver Center
Mon 01:05:45 AM 37.3819 -110.6119 252° West 382 440 36,000  Level Denver Center
Mon 01:06:46 AM 37.3483 -110.7381 252° West 381 438 36,000  Level Denver Center
Mon 01:07:47 AM 37.3144 -110.8636 251° West 380 437 36,000  Level Denver Center
Mon 01:08:47 AM 37.2822 -110.9858 252° West 371 427 36,000  Level Denver Center
Mon 01:09:48 AM 37.2500 -111.1075 252° West 368 423 36,000 -148 Level Denver Center
Mon 01:10:49 AM 37.2156 -111.2353 251° West 382 440 35,700 -545 Descending Denver Center
Mon 01:11:49 AM 37.1828 -111.3569 251° West 372 428 34,900 -893 Descending Denver Center
Mon 01:12:50 AM 37.1494 -111.4797 251° West 371 427 33,900 -984 Descending Denver Center
Mon 01:13:51 AM 37.1164 -111.6072 252° West 380 437 32,900 -942 Descending Denver Center
Mon 01:14:51 AM 37.0808 -111.7389 251° West 392 451 32,000 -446 Descending Denver Center
Mon 01:15:52 AM 37.0431 -111.8708 250° West 400 460 32,000  Level Denver Center
Mon 01:16:53 AM 37.0078 -111.9997 251° West 395 455 32,000 50 Level Denver Center
Mon 01:17:53 AM 36.9700 -112.1331 251° West 400 460 32,100 78 Climbing Denver Center
Mon 01:18:10 AM 36.9539 -112.1881 250° West 409 471 32,100 -462 Level Los Angeles Center
Mon 01:19:11 AM 36.9169 -112.3214 251° West 407 468 31,500 -829 Descending Los Angeles Center
Mon 01:20:13 AM 36.8853 -112.4461 252° West 381 438 30,400 -976 Descending Los Angeles Center
Mon 01:21:14 AM 36.8767 -112.5600 265° West 336 387 29,500 -878 Descending Los Angeles Center
Mon 01:22:16 AM 36.8711 -112.6706 266° West 322 371 28,600 -927 Descending Los Angeles Center
Mon 01:23:17 AM 36.8642 -112.7806 266° West 319 367 27,600 -968 Descending Los Angeles Center
Mon 01:24:20 AM 36.8578 -112.8889 266° West 315 362 26,600 -976 Descending Los Angeles Center
Mon 01:25:20 AM 36.8519 -112.9933 266° West 305 351 25,600 -1,091 Descending Los Angeles Center
Mon 01:26:21 AM 36.8842 -113.1044 290° West 303 349 24,400 -787 Descending Los Angeles Center
Mon 01:27:22 AM 36.9394 -113.1811 312° West 304 350 24,000 -195 Descending Los Angeles Center
Mon 01:28:24 AM 36.9167 -113.2783 254° West 304 350 24,000  Level Los Angeles Center
Mon 01:29:25 AM 36.8764 -113.3733 242° Southwest 310 357 24,000  Level Los Angeles Center
Mon 01:30:26 AM 36.8372 -113.4678 243° Southwest 307 353 24,000  Level Los Angeles Center
Mon 01:31:28 AM 36.7967 -113.5631 242° Southwest 311 358 24,000  Level Los Angeles Center
Mon 01:32:41 AM 36.7575 -113.6575 243° Southwest 308 354 24,000  Level Los Angeles Center
Mon 01:33:43 AM 36.7058 -113.7753 241° Southwest 319 367 24,000 -341 Level Los Angeles Center
Mon 01:34:44 AM 36.6575 -113.8914 243° Southwest 365 420 23,300 -829 Descending Los Angeles Center
Mon 01:35:46 AM 36.6083 -114.0061 242° Southwest 375 432 22,300 -2,016 Descending Los Angeles Center
Mon 01:36:46 AM 36.5497 -114.1414 242° Southwest 373 429 19,200 -2,852 Descending Los Angeles Center
Mon 01:37:48 AM 36.5069 -114.2317 239° Southwest 367 422 16,500 -2,878 Descending Los Angeles Center
Mon 01:38:49 AM 36.4481 -114.3600 240° Southwest 360 414 13,300 -2,741 Descending Los Angeles Center
Mon 01:39:09 AM 36.4344 -114.3994 247° West 354 407 12,800 -1,082 Descending Los Angeles Center
Mon 01:39:50 AM 36.4014 -114.4606 236° Southwest 344 396 12,200 -689 Descending Los Angeles Center
Mon 01:40:10 AM 36.3819 -114.4842 224° Southwest 312 359 12,100 -197 Descending Los Angeles Center
Mon 01:40:51 AM 36.3242 -114.4983 191° South 316 364 12,000 -700 Descending Los Angeles Center
Mon 01:41:10 AM 36.2964 -114.5078 195° South 307 353 11,400 -1,258 Descending Los Angeles Center
Mon 01:41:53 AM 36.2475 -114.5358 205° Southwest 306 352 10,700 -1,180 Descending Los Angeles Center
Mon 01:42:11 AM 36.2306 -114.5622 231° Southwest 294 338 10,200 -984 Descending Los Angeles Center
Mon 01:42:54 AM 36.2028 -114.5928 222° Southwest 294 338 9,700 -1,082 Descending Los Angeles Center
Mon 01:43:12 AM 36.1772 -114.6336 232° Southwest 284 327 9,100 -1,082 Descending Los Angeles Center
Mon 01:43:55 AM 36.1603 -114.6853 248° West 266 306 8,600 -787 Descending Los Angeles Center
Mon 01:44:13 AM 36.1578 -114.7122 263° West 234 269 8,300 -590 Descending Los Angeles Center
Mon 01:44:56 AM 36.1467 -114.7592 254° West 227 261 8,000 -519 Descending Los Angeles Center
Mon 01:45:57 AM 36.1408 -114.8283 264° West 207 238 7,400 -1,063 Descending Los Angeles Center
Mon 01:46:15 AM 36.1414 -114.8536 272° West 182 209 6,600 -1,279 Descending Los Angeles Center
Mon 01:46:58 AM 36.1364 -114.8903 260° West 185 213 6,100 -343 Descending Los Angeles Center
Mon 01:48:00 AM 36.1325 -114.9528 266° West 183 211 6,000 -308 Descending Los Angeles Center
Mon 01:48:16 AM 36.1347 -114.9811 276° West 187 215 5,700 -984 Descending Los Angeles Center
Mon 01:49:01 AM 36.1350 -115.0169 271° West 185 213 5,000 -1,180 Descending Los Angeles Center
Mon 01:49:17 AM 36.1375 -115.0442 276° West 178 205 4,500 -1,180 Descending Los Angeles Center
Mon 01:50:02 AM 36.1406 -115.0767 277° West 181 208 3,800 -1,082 Descending Los Angeles Center
Mon 01:50:18 AM 36.1356 -115.1033 257° West 146 168 3,400 -885 Descending Los Angeles Center
Mon 01:51:03 AM 36.1297 -115.1314 256° West 148 170 2,900 -679 Descending Los Angeles Center
Mon 01:52:04 AM 36.0983 -115.1531 209° Southwest 133 153 2,200 -689 Descending Los Angeles Center
Mon 01:54:00 AM 36.0801 -115.1523 219° Southwest  Level Estimated

Login

Don't have an account? Register now (free) for customized features, flight alerts, and more!